sensor_id;sensor_type;location;lat;lon;timestamp;pressure;altitude;pressure_sealevel;temperature;humidity
68179;BME280;69812;42.632;23.440;2023-08-20T00:02:18;95363.22;;;17.02;71.21
68179;BME280;69812;42.632;23.440;2023-08-20T00:04:46;95360.13;;;17.07;71.03
68179;BME280;69812;42.632;23.440;2023-08-20T00:07:13;95361.81;;;17.23;71.07
68179;BME280;69812;42.632;23.440;2023-08-20T00:09:38;95372.97;;;17.32;70.70
68179;BME280;69812;42.632;23.440;2023-08-20T00:12:07;95366.38;;;17.21;70.58
68179;BME280;69812;42.632;23.440;2023-08-20T00:14:55;95381.91;;;17.29;70.69
68179;BME280;69812;42.632;23.440;2023-08-20T00:17:22;95376.97;;;17.42;70.28
68179;BME280;69812;42.632;23.440;2023-08-20T00:19:50;95371.84;;;17.26;70.77
68179;BME280;69812;42.632;23.440;2023-08-20T00:22:19;95379.34;;;17.21;70.82
68179;BME280;69812;42.632;23.440;2023-08-20T00:24:44;95373.84;;;17.16;70.34
68179;BME280;69812;42.632;23.440;2023-08-20T00:27:15;95373.47;;;17.27;70.30
68179;BME280;69812;42.632;23.440;2023-08-20T00:29:40;95370.91;;;17.19;70.49
68179;BME280;69812;42.632;23.440;2023-08-20T00:32:06;95365.53;;;17.60;68.20
68179;BME280;69812;42.632;23.440;2023-08-20T00:34:36;95372.53;;;17.59;68.74
68179;BME280;69812;42.632;23.440;2023-08-20T00:37:06;95374.03;;;17.45;69.27
68179;BME280;69812;42.632;23.440;2023-08-20T00:39:31;95377.69;;;17.28;69.87
68179;BME280;69812;42.632;23.440;2023-08-20T00:41:57;95384.00;;;17.25;70.03
68179;BME280;69812;42.632;23.440;2023-08-20T00:44:23;95375.97;;;17.12;70.48
68179;BME280;69812;42.632;23.440;2023-08-20T00:46:48;95379.22;;;17.06;70.83
68179;BME280;69812;42.632;23.440;2023-08-20T00:49:14;95377.09;;;17.18;70.83
68179;BME280;69812;42.632;23.440;2023-08-20T00:51:44;95371.81;;;16.95;71.70
68179;BME280;69812;42.632;23.440;2023-08-20T00:54:10;95361.66;;;16.85;72.33
68179;BME280;69812;42.632;23.440;2023-08-20T00:56:39;95358.22;;;16.93;71.77
68179;BME280;69812;42.632;23.440;2023-08-20T00:59:05;95371.78;;;17.11;71.55
68179;BME280;69812;42.632;23.440;2023-08-20T01:01:33;95366.47;;;17.36;70.62
68179;BME280;69812;42.632;23.440;2023-08-20T01:03:58;95374.66;;;17.16;70.67
68179;BME280;69812;42.632;23.440;2023-08-20T01:07:00;95378.94;;;16.93;71.31
68179;BME280;69812;42.632;23.440;2023-08-20T01:12:00;95378.53;;;16.48;72.66
68179;BME280;69812;42.632;23.440;2023-08-20T01:14:27;95378.69;;;16.47;73.11
68179;BME280;69812;42.632;23.440;2023-08-20T01:16:52;95367.81;;;16.43;73.41
68179;BME280;69812;42.632;23.440;2023-08-20T01:19:20;95365.09;;;16.45;73.71
68179;BME280;69812;42.632;23.440;2023-08-20T01:27:14;95371.25;;;16.27;74.59
68179;BME280;69812;42.632;23.440;2023-08-20T01:29:41;95379.16;;;16.26;74.97
68179;BME280;69812;42.632;23.440;2023-08-20T01:32:07;95376.44;;;16.27;75.01
68179;BME280;69812;42.632;23.440;2023-08-20T01:34:33;95369.63;;;16.10;75.49
68179;BME280;69812;42.632;23.440;2023-08-20T01:36:58;95377.06;;;15.96;76.22
68179;BME280;69812;42.632;23.440;2023-08-20T01:39:26;95367.81;;;15.94;76.17
68179;BME280;69812;42.632;23.440;2023-08-20T01:41:54;95365.25;;;15.86;76.04
68179;BME280;69812;42.632;23.440;2023-08-20T01:44:19;95367.50;;;15.72;77.06
68179;BME280;69812;42.632;23.440;2023-08-20T01:46:45;95361.94;;;15.67;77.24
68179;BME280;69812;42.632;23.440;2023-08-20T01:49:10;95360.47;;;15.56;77.53
68179;BME280;69812;42.632;23.440;2023-08-20T01:51:35;95351.25;;;15.54;77.90
68179;BME280;69812;42.632;23.440;2023-08-20T01:54:04;95346.88;;;15.46;78.06
68179;BME280;69812;42.632;23.440;2023-08-20T01:56:29;95346.88;;;15.54;78.38
68179;BME280;69812;42.632;23.440;2023-08-20T01:58:57;95345.41;;;15.44;78.84
68179;BME280;69812;42.632;23.440;2023-08-20T02:01:25;95336.84;;;15.51;78.80
68179;BME280;69812;42.632;23.440;2023-08-20T02:03:53;95339.13;;;15.54;78.87
68179;BME280;69812;42.632;23.440;2023-08-20T02:06:18;95347.03;;;15.45;79.08
68179;BME280;69812;42.632;23.440;2023-08-20T02:08:44;95329.03;;;15.35;78.83
68179;BME280;69812;42.632;23.440;2023-08-20T02:11:27;95326.97;;;15.38;79.12
68179;BME280;69812;42.632;23.440;2023-08-20T02:13:52;95328.41;;;15.41;79.38
68179;BME280;69812;42.632;23.440;2023-08-20T02:16:18;95329.69;;;15.37;79.49
68179;BME280;69812;42.632;23.440;2023-08-20T02:18:43;95323.38;;;15.23;79.64
68179;BME280;69812;42.632;23.440;2023-08-20T02:21:08;95329.66;;;15.20;79.99
68179;BME280;69812;42.632;23.440;2023-08-20T02:23:34;95328.47;;;15.07;80.20
68179;BME280;69812;42.632;23.440;2023-08-20T02:25:59;95320.06;;;15.05;80.58
68179;BME280;69812;42.632;23.440;2023-08-20T02:28:32;95328.75;;;14.95;80.83
68179;BME280;69812;42.632;23.440;2023-08-20T02:30:57;95322.97;;;15.02;81.01
68179;BME280;69812;42.632;23.440;2023-08-20T02:33:27;95331.69;;;15.00;81.11
68179;BME280;69812;42.632;23.440;2023-08-20T02:35:52;95330.41;;;14.96;81.35
68179;BME280;69812;42.632;23.440;2023-08-20T02:38:20;95326.84;;;14.97;81.60
68179;BME280;69812;42.632;23.440;2023-08-20T02:40:45;95311.28;;;14.89;81.99
68179;BME280;69812;42.632;23.440;2023-08-20T02:43:11;95314.34;;;14.85;82.23
68179;BME280;69812;42.632;23.440;2023-08-20T02:45:41;95312.06;;;14.82;82.14
68179;BME280;69812;42.632;23.440;2023-08-20T02:48:14;95330.34;;;14.88;82.01
68179;BME280;69812;42.632;23.440;2023-08-20T02:50:40;95327.91;;;14.87;82.15
68179;BME280;69812;42.632;23.440;2023-08-20T02:53:05;95318.19;;;14.81;82.47
68179;BME280;69812;42.632;23.440;2023-08-20T02:55:31;95331.91;;;14.81;82.34
68179;BME280;69812;42.632;23.440;2023-08-20T02:57:57;95324.47;;;14.78;82.60
68179;BME280;69812;42.632;23.440;2023-08-20T03:00:25;95331.34;;;14.95;82.04
68179;BME280;69812;42.632;23.440;2023-08-20T03:02:50;95338.81;;;14.98;82.17
68179;BME280;69812;42.632;23.440;2023-08-20T03:05:16;95338.09;;;14.88;81.97
68179;BME280;69812;42.632;23.440;2023-08-20T03:07:41;95333.31;;;15.02;81.91
68179;BME280;69812;42.632;23.440;2023-08-20T03:10:07;95330.41;;;14.96;81.96
68179;BME280;69812;42.632;23.440;2023-08-20T03:12:32;95329.19;;;14.83;82.41
68179;BME280;69812;42.632;23.440;2023-08-20T03:15:00;95337.97;;;14.90;82.49
68179;BME280;69812;42.632;23.440;2023-08-20T03:17:25;95333.28;;;14.93;82.44
68179;BME280;69812;42.632;23.440;2023-08-20T03:19:55;95334.91;;;14.94;82.70
68179;BME280;69812;42.632;23.440;2023-08-20T03:22:22;95337.31;;;14.96;82.68
68179;BME280;69812;42.632;23.440;2023-08-20T03:24:47;95334.25;;;15.00;82.98
68179;BME280;69812;42.632;23.440;2023-08-20T03:27:13;95341.59;;;15.13;82.60
68179;BME280;69812;42.632;23.440;2023-08-20T03:29:38;95332.38;;;15.11;82.29
68179;BME280;69812;42.632;23.440;2023-08-20T03:32:04;95335.84;;;14.93;82.69
68179;BME280;69812;42.632;23.440;2023-08-20T03:34:29;95328.72;;;14.87;83.00
68179;BME280;69812;42.632;23.440;2023-08-20T03:36:54;95333.09;;;14.87;83.34
68179;BME280;69812;42.632;23.440;2023-08-20T03:39:27;95321.44;;;14.83;83.27
68179;BME280;69812;42.632;23.440;2023-08-20T03:41:53;95322.59;;;14.88;82.79
68179;BME280;69812;42.632;23.440;2023-08-20T03:44:21;95317.72;;;14.85;83.06
68179;BME280;69812;42.632;23.440;2023-08-20T03:46:46;95319.81;;;14.82;83.22
68179;BME280;69812;42.632;23.440;2023-08-20T03:49:12;95332.63;;;14.91;83.29
68179;BME280;69812;42.632;23.440;2023-08-20T03:51:39;95315.31;;;14.92;83.32
68179;BME280;69812;42.632;23.440;2023-08-20T03:54:06;95325.41;;;15.11;82.33
68179;BME280;69812;42.632;23.440;2023-08-20T03:56:31;95328.25;;;15.34;81.23
68179;BME280;69812;42.632;23.440;2023-08-20T03:58:59;95319.38;;;15.45;80.78
68179;BME280;69812;42.632;23.440;2023-08-20T04:01:24;95326.34;;;15.61;80.13
68179;BME280;69812;42.632;23.440;2023-08-20T04:03:49;95324.13;;;15.66;79.56
68179;BME280;69812;42.632;23.440;2023-08-20T04:06:15;95332.53;;;15.76;79.33
68179;BME280;69812;42.632;23.440;2023-08-20T04:08:40;95328.03;;;15.78;79.34
68179;BME280;69812;42.632;23.440;2023-08-20T04:11:08;95328.03;;;15.87;79.62
68179;BME280;69812;42.632;23.440;2023-08-20T04:13:34;95325.47;;;16.11;78.82
68179;BME280;69812;42.632;23.440;2023-08-20T04:15:59;95328.66;;;16.21;78.35
68179;BME280;69812;42.632;23.440;2023-08-20T04:18:25;95330.75;;;16.42;77.60
68179;BME280;69812;42.632;23.440;2023-08-20T04:20:51;95326.13;;;16.94;75.14
68179;BME280;69812;42.632;23.440;2023-08-20T04:23:17;95332.94;;;17.26;73.33
68179;BME280;69812;42.632;23.440;2023-08-20T04:25:46;95341.69;;;17.33;72.70
68179;BME280;69812;42.632;23.440;2023-08-20T04:28:12;95326.69;;;17.43;71.71
68179;BME280;69812;42.632;23.440;2023-08-20T04:30:39;95323.47;;;18.34;69.49
68179;BME280;69812;42.632;23.440;2023-08-20T04:33:11;95326.59;;;20.06;64.28
68179;BME280;69812;42.632;23.440;2023-08-20T04:35:39;95325.31;;;21.56;57.91
68179;BME280;69812;42.632;23.440;2023-08-20T04:38:07;95326.41;;;22.55;54.91
68179;BME280;69812;42.632;23.440;2023-08-20T04:40:33;95319.97;;;23.43;52.48
68179;BME280;69812;42.632;23.440;2023-08-20T04:42:58;95328.38;;;23.51;50.66
68179;BME280;69812;42.632;23.440;2023-08-20T04:45:26;95330.28;;;23.76;49.90
68179;BME280;69812;42.632;23.440;2023-08-20T04:47:51;95324.84;;;23.77;49.86
68179;BME280;69812;42.632;23.440;2023-08-20T04:50:17;95323.31;;;23.56;50.54
68179;BME280;69812;42.632;23.440;2023-08-20T04:52:45;95325.28;;;23.61;51.10
68179;BME280;69812;42.632;23.440;2023-08-20T04:55:10;95331.63;;;24.17;49.18
68179;BME280;69812;42.632;23.440;2023-08-20T04:57:40;95328.56;;;24.20;48.17
68179;BME280;69812;42.632;23.440;2023-08-20T05:00:08;95338.84;;;23.96;49.18
68179;BME280;69812;42.632;23.440;2023-08-20T05:02:37;95333.59;;;24.22;49.07
68179;BME280;69812;42.632;23.440;2023-08-20T05:05:02;95333.44;;;24.92;46.79
68179;BME280;69812;42.632;23.440;2023-08-20T05:07:28;95340.16;;;25.25;45.36
68179;BME280;69812;42.632;23.440;2023-08-20T05:09:54;95336.09;;;25.29;45.40
68179;BME280;69812;42.632;23.440;2023-08-20T05:12:23;95338.59;;;25.17;45.68
68179;BME280;69812;42.632;23.440;2023-08-20T05:14:49;95342.44;;;24.77;46.48
68179;BME280;69812;42.632;23.440;2023-08-20T05:17:14;95339.19;;;24.57;47.62
68179;BME280;69812;42.632;23.440;2023-08-20T05:19:40;95341.97;;;24.12;49.37
68179;BME280;69812;42.632;23.440;2023-08-20T05:22:05;95343.97;;;23.78;49.28
68179;BME280;69812;42.632;23.440;2023-08-20T05:24:30;95341.25;;;23.53;50.13
68179;BME280;69812;42.632;23.440;2023-08-20T05:27:11;95342.81;;;24.06;48.96
68179;BME280;69812;42.632;23.440;2023-08-20T05:29:39;95351.84;;;24.85;47.08
68179;BME280;69812;42.632;23.440;2023-08-20T05:32:08;95347.78;;;25.93;44.30
68179;BME280;69812;42.632;23.440;2023-08-20T05:34:34;95354.00;;;27.93;40.33
68179;BME280;69812;42.632;23.440;2023-08-20T05:37:02;95357.34;;;29.67;36.79
68179;BME280;69812;42.632;23.440;2023-08-20T05:39:35;95360.16;;;30.69;34.20
68179;BME280;69812;42.632;23.440;2023-08-20T05:42:04;95360.06;;;30.54;33.46
68179;BME280;69812;42.632;23.440;2023-08-20T05:44:29;95360.22;;;31.22;32.11
68179;BME280;69812;42.632;23.440;2023-08-20T05:46:54;95358.75;;;30.57;33.13
68179;BME280;69812;42.632;23.440;2023-08-20T05:49:22;95366.56;;;29.21;35.67
68179;BME280;69812;42.632;23.440;2023-08-20T05:51:52;95369.53;;;27.77;38.48
68179;BME280;69812;42.632;23.440;2023-08-20T05:54:17;95366.41;;;27.92;38.69
68179;BME280;69812;42.632;23.440;2023-08-20T05:56:45;95363.81;;;31.01;33.83
68179;BME280;69812;42.632;23.440;2023-08-20T05:59:11;95368.91;;;33.50;28.98
68179;BME280;69812;42.632;23.440;2023-08-20T06:01:36;95370.38;;;34.26;28.32
68179;BME280;69812;42.632;23.440;2023-08-20T06:04:09;95366.75;;;35.10;27.35
68179;BME280;69812;42.632;23.440;2023-08-20T06:06:37;95366.59;;;36.11;25.83
68179;BME280;69812;42.632;23.440;2023-08-20T06:09:05;95365.44;;;35.55;26.31
68179;BME280;69812;42.632;23.440;2023-08-20T06:11:33;95366.59;;;34.38;27.95
68179;BME280;69812;42.632;23.440;2023-08-20T06:13:59;95365.19;;;33.51;29.17
68179;BME280;69812;42.632;23.440;2023-08-20T06:16:24;95364.00;;;34.27;28.26
68179;BME280;69812;42.632;23.440;2023-08-20T06:18:52;95361.97;;;36.36;25.41
68179;BME280;69812;42.632;23.440;2023-08-20T06:21:17;95362.34;;;38.82;22.66
68179;BME280;69812;42.632;23.440;2023-08-20T06:23:53;95365.75;;;40.02;20.83
68179;BME280;69812;42.632;23.440;2023-08-20T06:26:20;95357.81;;;40.76;19.79
68179;BME280;69812;42.632;23.440;2023-08-20T06:28:48;95367.84;;;42.57;17.72
68179;BME280;69812;42.632;23.440;2023-08-20T06:31:14;95366.78;;;43.41;17.45
68179;BME280;69812;42.632;23.440;2023-08-20T06:33:39;95366.06;;;44.78;15.95
68179;BME280;69812;42.632;23.440;2023-08-20T06:36:05;95362.78;;;45.32;15.21
68179;BME280;69812;42.632;23.440;2023-08-20T06:38:32;95359.44;;;45.55;14.98
68179;BME280;69812;42.632;23.440;2023-08-20T06:40:57;95364.06;;;46.25;14.57
68179;BME280;69812;42.632;23.440;2023-08-20T06:43:27;95367.94;;;46.86;14.35
68179;BME280;69812;42.632;23.440;2023-08-20T06:45:57;95362.53;;;47.36;13.76
68179;BME280;69812;42.632;23.440;2023-08-20T06:48:23;95362.19;;;47.90;13.42
68179;BME280;69812;42.632;23.440;2023-08-20T06:50:52;95357.59;;;48.62;13.37
68179;BME280;69812;42.632;23.440;2023-08-20T06:53:17;95358.09;;;49.16;12.44
68179;BME280;69812;42.632;23.440;2023-08-20T06:55:45;95359.53;;;49.51;11.65
68179;BME280;69812;42.632;23.440;2023-08-20T06:58:11;95361.06;;;50.18;11.75
68179;BME280;69812;42.632;23.440;2023-08-20T07:00:36;95354.19;;;50.67;11.06
68179;BME280;69812;42.632;23.440;2023-08-20T07:03:04;95359.63;;;50.57;11.58
68179;BME280;69812;42.632;23.440;2023-08-20T07:05:32;95355.00;;;50.96;11.33
68179;BME280;69812;42.632;23.440;2023-08-20T07:08:00;95349.56;;;51.04;10.66
68179;BME280;69812;42.632;23.440;2023-08-20T07:10:25;95355.00;;;51.07;10.86
68179;BME280;69812;42.632;23.440;2023-08-20T07:12:50;95352.19;;;49.62;11.52
68179;BME280;69812;42.632;23.440;2023-08-20T07:15:16;95369.00;;;46.39;13.61
68179;BME280;69812;42.632;23.440;2023-08-20T07:17:41;95351.50;;;44.10;15.38
68179;BME280;69812;42.632;23.440;2023-08-20T07:20:07;95344.28;;;45.69;14.37
68179;BME280;69812;42.632;23.440;2023-08-20T07:22:32;95349.47;;;45.94;14.15
68179;BME280;69812;42.632;23.440;2023-08-20T07:24:58;95339.41;;;45.59;14.26
68179;BME280;69812;42.632;23.440;2023-08-20T07:27:25;95346.19;;;44.42;15.10
68179;BME280;69812;42.632;23.440;2023-08-20T07:29:54;95347.31;;;42.32;17.36
68179;BME280;69812;42.632;23.440;2023-08-20T07:32:19;95340.41;;;40.64;18.48
68179;BME280;69812;42.632;23.440;2023-08-20T07:34:44;95344.69;;;41.21;18.37
68179;BME280;69812;42.632;23.440;2023-08-20T07:37:10;95336.97;;;40.38;19.65
68179;BME280;69812;42.632;23.440;2023-08-20T07:39:37;95346.56;;;41.80;17.69
68179;BME280;69812;42.632;23.440;2023-08-20T07:42:05;95335.59;;;43.31;16.04
68179;BME280;69812;42.632;23.440;2023-08-20T07:44:33;95340.75;;;42.54;17.00
68179;BME280;69812;42.632;23.440;2023-08-20T07:47:01;95340.13;;;41.04;18.08
68179;BME280;69812;42.632;23.440;2023-08-20T07:49:26;95340.13;;;41.04;17.85
68179;BME280;69812;42.632;23.440;2023-08-20T07:51:56;95327.13;;;40.59;18.22
68179;BME280;69812;42.632;23.440;2023-08-20T07:54:21;95334.94;;;41.89;17.46
68179;BME280;69812;42.632;23.440;2023-08-20T07:56:47;95337.75;;;41.03;17.65
68179;BME280;69812;42.632;23.440;2023-08-20T07:59:12;95335.78;;;42.43;16.50
68179;BME280;69812;42.632;23.440;2023-08-20T08:01:40;95332.25;;;42.64;16.08
68179;BME280;69812;42.632;23.440;2023-08-20T08:04:08;95324.72;;;41.52;16.96
68179;BME280;69812;42.632;23.440;2023-08-20T08:06:39;95330.63;;;41.75;17.30
68179;BME280;69812;42.632;23.440;2023-08-20T08:09:26;95331.28;;;41.42;17.54
68179;BME280;69812;42.632;23.440;2023-08-20T08:11:54;95332.41;;;40.47;17.44
68179;BME280;69812;42.632;23.440;2023-08-20T08:14:22;95329.75;;;40.85;17.50
68179;BME280;69812;42.632;23.440;2023-08-20T08:16:48;95326.50;;;40.62;16.99
68179;BME280;69812;42.632;23.440;2023-08-20T08:19:14;95319.56;;;38.77;18.79
68179;BME280;69812;42.632;23.440;2023-08-20T08:21:42;95320.16;;;35.26;21.92
68179;BME280;69812;42.632;23.440;2023-08-20T08:24:11;95328.69;;;32.66;23.93
68179;BME280;69812;42.632;23.440;2023-08-20T08:26:36;95344.63;;;31.31;25.49
68179;BME280;69812;42.632;23.440;2023-08-20T08:29:02;95326.66;;;30.48;27.44
68179;BME280;69812;42.632;23.440;2023-08-20T08:31:38;95336.34;;;30.32;28.07
68179;BME280;69812;42.632;23.440;2023-08-20T08:34:03;95333.03;;;30.25;28.91
68179;BME280;69812;42.632;23.440;2023-08-20T08:36:29;95318.84;;;30.31;28.35
68179;BME280;69812;42.632;23.440;2023-08-20T08:38:54;95323.44;;;30.41;27.55
68179;BME280;69812;42.632;23.440;2023-08-20T08:41:22;95325.09;;;30.52;27.90
68179;BME280;69812;42.632;23.440;2023-08-20T08:43:53;95314.94;;;30.12;28.44
68179;BME280;69812;42.632;23.440;2023-08-20T08:46:19;95319.78;;;29.93;28.46
68179;BME280;69812;42.632;23.440;2023-08-20T08:48:48;95324.13;;;30.31;28.90
68179;BME280;69812;42.632;23.440;2023-08-20T08:51:14;95317.44;;;30.23;28.00
68179;BME280;69812;42.632;23.440;2023-08-20T08:53:42;95320.00;;;29.86;28.72
68179;BME280;69812;42.632;23.440;2023-08-20T08:56:10;95320.34;;;29.95;28.83
68179;BME280;69812;42.632;23.440;2023-08-20T08:58:36;95313.31;;;30.05;28.34
68179;BME280;69812;42.632;23.440;2023-08-20T09:01:01;95317.56;;;29.79;29.28
68179;BME280;69812;42.632;23.440;2023-08-20T09:03:27;95322.50;;;29.71;29.01
68179;BME280;69812;42.632;23.440;2023-08-20T09:05:58;95317.34;;;29.86;28.96
68179;BME280;69812;42.632;23.440;2023-08-20T09:08:28;95318.69;;;29.61;29.99
68179;BME280;69812;42.632;23.440;2023-08-20T09:10:57;95316.91;;;29.45;29.33
68179;BME280;69812;42.632;23.440;2023-08-20T09:13:31;95314.09;;;29.74;29.58
68179;BME280;69812;42.632;23.440;2023-08-20T09:15:57;95310.03;;;29.93;28.28
68179;BME280;69812;42.632;23.440;2023-08-20T09:18:23;95308.25;;;29.72;28.04
68179;BME280;69812;42.632;23.440;2023-08-20T09:20:49;95304.13;;;29.86;28.41
68179;BME280;69812;42.632;23.440;2023-08-20T09:23:17;95318.38;;;29.80;27.53
68179;BME280;69812;42.632;23.440;2023-08-20T09:25:53;95309.31;;;29.26;28.84
68179;BME280;69812;42.632;23.440;2023-08-20T09:28:18;95314.25;;;29.45;29.10
68179;BME280;69812;42.632;23.440;2023-08-20T09:31:04;95317.63;;;29.62;28.38
68179;BME280;69812;42.632;23.440;2023-08-20T09:33:29;95307.19;;;29.73;27.78
68179;BME280;69812;42.632;23.440;2023-08-20T09:35:55;95307.88;;;29.63;28.15
68179;BME280;69812;42.632;23.440;2023-08-20T09:38:24;95316.78;;;29.57;27.81
68179;BME280;69812;42.632;23.440;2023-08-20T09:40:53;95316.53;;;29.58;27.74
68179;BME280;69812;42.632;23.440;2023-08-20T09:43:25;95309.69;;;29.84;27.06
68179;BME280;69812;42.632;23.440;2023-08-20T09:46:02;95291.75;;;29.92;27.55
68179;BME280;69812;42.632;23.440;2023-08-20T09:48:38;95302.69;;;30.00;27.78
68179;BME280;69812;42.632;23.440;2023-08-20T09:51:11;95300.50;;;29.92;26.54
68179;BME280;69812;42.632;23.440;2023-08-20T09:53:55;95294.28;;;30.08;27.25
68179;BME280;69812;42.632;23.440;2023-08-20T09:56:46;95302.84;;;29.66;28.73
68179;BME280;69812;42.632;23.440;2023-08-20T09:59:17;95302.03;;;29.88;28.59
68179;BME280;69812;42.632;23.440;2023-08-20T10:01:42;95301.69;;;30.06;29.05
68179;BME280;69812;42.632;23.440;2023-08-20T10:04:11;95296.59;;;30.00;27.53
68179;BME280;69812;42.632;23.440;2023-08-20T10:06:40;95304.19;;;29.91;28.71
68179;BME280;69812;42.632;23.440;2023-08-20T10:09:09;95296.53;;;29.95;28.28
68179;BME280;69812;42.632;23.440;2023-08-20T10:11:34;95297.28;;;29.90;28.84
68179;BME280;69812;42.632;23.440;2023-08-20T10:14:09;95297.13;;;29.69;28.55
68179;BME280;69812;42.632;23.440;2023-08-20T10:16:45;95286.97;;;29.66;28.68
68179;BME280;69812;42.632;23.440;2023-08-20T10:19:16;95303.00;;;29.77;28.94
68179;BME280;69812;42.632;23.440;2023-08-20T10:21:52;95295.97;;;29.93;28.83
68179;BME280;69812;42.632;23.440;2023-08-20T10:24:20;95293.75;;;29.79;29.05
68179;BME280;69812;42.632;23.440;2023-08-20T10:27:10;95288.00;;;29.87;28.88
68179;BME280;69812;42.632;23.440;2023-08-20T10:29:47;95286.50;;;29.97;29.24
68179;BME280;69812;42.632;23.440;2023-08-20T10:32:13;95288.59;;;29.95;29.02
68179;BME280;69812;42.632;23.440;2023-08-20T10:34:49;95283.50;;;29.88;29.45
68179;BME280;69812;42.632;23.440;2023-08-20T10:37:26;95281.00;;;30.03;29.42
68179;BME280;69812;42.632;23.440;2023-08-20T10:39:56;95289.56;;;30.16;28.85
68179;BME280;69812;42.632;23.440;2023-08-20T10:42:28;95278.91;;;30.05;28.82
68179;BME280;69812;42.632;23.440;2023-08-20T10:45:06;95284.28;;;30.16;28.80
68179;BME280;69812;42.632;23.440;2023-08-20T10:47:44;95280.06;;;30.20;28.47
68179;BME280;69812;42.632;23.440;2023-08-20T10:50:15;95281.31;;;30.07;28.24
68179;BME280;69812;42.632;23.440;2023-08-20T10:52:47;95285.59;;;30.13;28.37
68179;BME280;69812;42.632;23.440;2023-08-20T10:55:13;95274.44;;;29.79;28.81
68179;BME280;69812;42.632;23.440;2023-08-20T10:57:40;95279.50;;;29.80;28.93
68179;BME280;69812;42.632;23.440;2023-08-20T11:00:05;95272.44;;;29.91;29.14
68179;BME280;69812;42.632;23.440;2023-08-20T11:02:35;95263.41;;;29.87;29.31
68179;BME280;69812;42.632;23.440;2023-08-20T11:05:02;95265.81;;;29.88;29.27
68179;BME280;69812;42.632;23.440;2023-08-20T11:07:33;95268.47;;;29.88;28.92
68179;BME280;69812;42.632;23.440;2023-08-20T11:10:00;95251.84;;;29.93;28.46
68179;BME280;69812;42.632;23.440;2023-08-20T11:12:28;95259.66;;;30.15;28.57
68179;BME280;69812;42.632;23.440;2023-08-20T11:15:00;95251.00;;;30.25;28.27
68179;BME280;69812;42.632;23.440;2023-08-20T11:17:26;95263.00;;;30.00;28.25
68179;BME280;69812;42.632;23.440;2023-08-20T11:19:54;95254.25;;;30.00;28.34
68179;BME280;69812;42.632;23.440;2023-08-20T11:22:22;95247.44;;;30.09;28.32
68179;BME280;69812;42.632;23.440;2023-08-20T11:24:47;95244.38;;;30.22;28.00
68179;BME280;69812;42.632;23.440;2023-08-20T11:27:14;95239.59;;;30.19;28.66
68179;BME280;69812;42.632;23.440;2023-08-20T11:29:44;95250.41;;;30.13;28.66
68179;BME280;69812;42.632;23.440;2023-08-20T11:32:10;95256.22;;;30.15;28.61
68179;BME280;69812;42.632;23.440;2023-08-20T11:34:36;95241.69;;;30.17;28.80
68179;BME280;69812;42.632;23.440;2023-08-20T11:37:04;95233.22;;;30.20;28.72
68179;BME280;69812;42.632;23.440;2023-08-20T11:39:30;95233.97;;;30.48;28.92
68179;BME280;69812;42.632;23.440;2023-08-20T11:41:55;95241.56;;;30.34;27.84
68179;BME280;69812;42.632;23.440;2023-08-20T11:44:21;95235.56;;;30.49;28.46
68179;BME280;69812;42.632;23.440;2023-08-20T11:46:47;95234.69;;;30.38;28.75
68179;BME280;69812;42.632;23.440;2023-08-20T11:49:14;95234.03;;;30.58;28.58
68179;BME280;69812;42.632;23.440;2023-08-20T11:51:49;95229.91;;;30.30;28.24
68179;BME280;69812;42.632;23.440;2023-08-20T11:54:19;95228.97;;;30.52;28.67
68179;BME280;69812;42.632;23.440;2023-08-20T11:56:51;95222.63;;;30.58;28.55
68179;BME280;69812;42.632;23.440;2023-08-20T11:59:20;95222.97;;;30.71;28.77
68179;BME280;69812;42.632;23.440;2023-08-20T12:01:54;95231.84;;;30.45;28.68
68179;BME280;69812;42.632;23.440;2023-08-20T12:04:24;95230.75;;;30.41;28.32
68179;BME280;69812;42.632;23.440;2023-08-20T12:07:09;95226.88;;;30.59;28.52
68179;BME280;69812;42.632;23.440;2023-08-20T12:09:38;95217.13;;;30.64;28.54
68179;BME280;69812;42.632;23.440;2023-08-20T12:12:10;95213.66;;;30.64;28.11
68179;BME280;69812;42.632;23.440;2023-08-20T12:14:36;95216.69;;;30.88;27.69
68179;BME280;69812;42.632;23.440;2023-08-20T12:17:01;95203.41;;;30.78;27.98
68179;BME280;69812;42.632;23.440;2023-08-20T12:19:29;95200.47;;;30.74;28.07
68179;BME280;69812;42.632;23.440;2023-08-20T12:21:59;95213.88;;;31.10;28.09
68179;BME280;69812;42.632;23.440;2023-08-20T12:24:24;95201.97;;;31.23;26.99
68179;BME280;69812;42.632;23.440;2023-08-20T12:26:51;95197.69;;;31.06;27.23
68179;BME280;69812;42.632;23.440;2023-08-20T12:29:16;95216.50;;;31.05;27.57
68179;BME280;69812;42.632;23.440;2023-08-20T12:31:42;95198.66;;;30.85;27.73
68179;BME280;69812;42.632;23.440;2023-08-20T12:34:07;95199.50;;;30.90;28.23
68179;BME280;69812;42.632;23.440;2023-08-20T12:36:37;95205.09;;;31.04;28.29
68179;BME280;69812;42.632;23.440;2023-08-20T12:39:04;95198.19;;;30.93;27.75
68179;BME280;69812;42.632;23.440;2023-08-20T12:41:30;95203.13;;;30.79;28.12
68179;BME280;69812;42.632;23.440;2023-08-20T12:43:57;95200.56;;;30.95;27.92
68179;BME280;69812;42.632;23.440;2023-08-20T12:46:24;95204.03;;;31.00;27.71
68179;BME280;69812;42.632;23.440;2023-08-20T12:48:52;95205.38;;;31.08;28.31
68179;BME280;69812;42.632;23.440;2023-08-20T12:51:17;95191.59;;;31.11;27.97
68179;BME280;69812;42.632;23.440;2023-08-20T12:53:43;95197.19;;;31.15;28.09
68179;BME280;69812;42.632;23.440;2023-08-20T12:56:08;95192.16;;;31.33;27.38
68179;BME280;69812;42.632;23.440;2023-08-20T12:58:34;95185.78;;;31.19;27.87
68179;BME280;69812;42.632;23.440;2023-08-20T13:00:59;95189.53;;;31.28;28.03
68179;BME280;69812;42.632;23.440;2023-08-20T13:03:25;95186.06;;;31.23;28.00